Time;durP1;ratioP1;P1;durP2;ratioP2;P2;SDS_P1;SDS_P2;PMS_P1;PMS_P2;Temp;Humidity;BMP_temperature;BMP_pressure;BME280_temperature;BME280_humidity;BME280_pressure;Samples;Min_cycle;Max_cycle;Signal;HPM_P1;HPM_P2
2022/03/01 00:01:22;;;;;;;16.80;9.10;;;0.60;65.50;;;-1.00;55.62;98520.72;5012441;28;20443;-75
2022/03/01 00:03:48;;;;;;;15.30;8.65;;;0.50;65.30;;;-1.01;55.75;98524.28;5011971;28;20404;-74
2022/03/01 00:06:15;;;;;;;16.13;8.87;;;0.50;65.90;;;-0.97;56.60;98525.59;5012051;28;20432;-75
2022/03/01 00:08:41;;;;;;;16.27;8.50;;;0.40;66.70;;;-1.10;56.48;98532.16;5012357;28;20902;-73
2022/03/01 00:11:07;;;;;;;18.33;8.82;;;0.40;66.30;;;-1.06;56.93;98533.50;5012309;28;20444;-73
2022/03/01 00:13:33;;;;;;;16.67;8.73;;;0.30;67.30;;;-1.14;56.80;98526.44;5011803;28;20775;-74
2022/03/01 00:15:58;;;;;;;17.13;9.30;;;0.30;67.10;;;-1.09;56.86;98531.19;5011925;28;20415;-73
2022/03/01 00:18:24;;;;;;;16.77;9.48;;;0.20;67.40;;;-1.24;57.15;98526.53;5012173;28;20408;-73
2022/03/01 00:20:50;;;;;;;17.45;9.40;;;0.20;67.40;;;-1.24;57.73;98530.91;5011778;28;20409;-74
2022/03/01 00:23:17;;;;;;;18.65;9.07;;;0.10;68.00;;;-1.34;57.48;98530.16;5011333;28;20400;-74
2022/03/01 00:25:43;;;;;;;16.52;8.88;;;0.10;68.20;;;-1.37;57.65;98533.88;5011758;28;20416;-75
2022/03/01 00:28:09;;;;;;;18.20;9.20;;;0.10;68.40;;;-1.52;57.74;98534.53;5011454;28;20417;-74
2022/03/01 00:30:35;;;;;;;21.27;9.82;;;0.00;68.20;;;-1.36;58.27;98525.13;5050773;22;20433;-72
2022/03/01 00:33:01;;;;;;;20.07;10.57;;;0.00;69.10;;;-1.38;58.07;98540.03;5050914;28;20512;-71
2022/03/01 00:35:27;;;;;;;17.95;9.73;;;0.00;69.30;;;-1.42;58.03;98530.88;5051341;28;20441;-70
2022/03/01 00:37:52;;;;;;;18.63;9.80;;;-0.10;69.60;;;-1.49;58.79;98534.22;5050938;28;20740;-70
2022/03/01 00:40:20;;;;;;;17.67;9.80;;;-0.10;70.00;;;-1.54;58.94;98537.25;5051175;28;20492;-70
2022/03/01 00:42:46;;;;;;;19.75;9.40;;;-0.10;70.20;;;-1.58;59.27;98538.53;5050715;28;20409;-70
2022/03/01 00:45:12;;;;;;;16.30;8.85;;;-0.20;70.60;;;-1.75;59.64;98541.91;5051188;28;20405;-71
2022/03/01 00:47:38;;;;;;;16.65;9.45;;;-0.20;70.20;;;-1.70;59.12;98539.66;5050952;28;20413;-71
2022/03/01 00:50:05;;;;;;;19.60;10.40;;;-0.20;70.30;;;-1.67;59.22;98535.03;5051085;28;20401;-71
2022/03/01 00:52:32;;;;;;;16.10;9.32;;;-0.30;70.60;;;-1.74;59.03;98533.16;5048875;28;21502;-71
2022/03/01 00:54:58;;;;;;;19.73;10.00;;;-0.30;70.40;;;-1.60;58.92;98528.28;5050077;28;20404;-71
2022/03/01 00:57:25;;;;;;;19.80;9.70;;;-0.30;70.30;;;-1.76;58.68;98529.88;5050492;28;20406;-71
2022/03/01 00:59:51;;;;;;;19.38;10.02;;;-0.30;70.00;;;-1.65;59.09;98527.88;5050686;28;20826;-71
2022/03/01 01:02:17;;;;;;;20.75;10.00;;;-0.30;70.40;;;-1.65;58.44;98522.69;5050160;28;20497;-71
2022/03/01 01:04:43;;;;;;;19.73;9.88;;;-0.30;70.00;;;-1.79;59.11;98523.19;5050632;28;20405;-70
2022/03/01 01:07:09;;;;;;;19.92;9.95;;;-0.30;70.00;;;-1.76;59.50;98516.91;5050325;28;20455;-71
2022/03/01 01:09:35;;;;;;;22.50;10.07;;;-0.40;70.50;;;-1.76;58.90;98509.13;5050575;28;20401;-71
2022/03/01 01:12:00;;;;;;;22.23;11.43;;;-0.40;70.50;;;-1.93;59.46;98517.66;5050234;28;20409;-71
2022/03/01 01:14:28;;;;;;;21.50;10.30;;;-0.40;70.60;;;-1.89;59.78;98511.25;5050679;28;20401;-71
2022/03/01 01:16:53;;;;;;;22.17;10.70;;;-0.60;70.80;;;-1.94;59.68;98514.25;5050209;28;20467;-71
2022/03/01 01:19:19;;;;;;;21.77;10.93;;;-0.50;70.90;;;-1.94;59.25;98506.47;5050363;28;20397;-71
2022/03/01 01:24:30;;;;;;;19.33;10.48;;;-0.50;70.60;;;-1.97;59.18;98507.59;5050475;28;20816;-70
2022/03/01 01:26:56;;;;;;;23.05;11.23;;;-0.60;70.50;;;-2.05;59.32;98506.69;5050166;28;20500;-71
2022/03/01 01:29:21;;;;;;;19.27;9.38;;;-0.70;70.80;;;-2.22;59.38;98497.06;5050154;28;20448;-70
2022/03/01 01:31:49;;;;;;;22.08;9.80;;;-0.70;70.80;;;-2.19;59.67;98501.97;5032001;28;20787;-71
2022/03/01 01:34:14;;;;;;;21.00;10.13;;;-0.70;70.70;;;-2.20;59.65;98501.16;5050641;28;20401;-70
2022/03/01 01:36:40;;;;;;;21.73;10.63;;;-0.80;70.90;;;-2.24;59.84;98497.19;5050279;28;20512;-70
2022/03/01 01:39:06;;;;;;;22.38;11.15;;;-0.80;71.20;;;-2.23;59.37;98492.81;5050214;28;20451;-71
2022/03/01 01:41:32;;;;;;;20.52;10.23;;;-0.80;71.10;;;-2.27;59.81;98489.72;5048859;28;20516;-71
2022/03/01 01:44:03;;;;;;;23.25;11.40;;;-0.80;71.10;;;-2.27;60.05;98489.72;5048889;28;20409;-70
2022/03/01 01:46:29;;;;;;;21.40;10.93;;;-0.80;71.30;;;-2.37;60.03;98481.16;5042077;28;20403;-71
2022/03/01 01:48:56;;;;;;;20.02;10.82;;;-0.90;71.60;;;-2.40;60.77;98484.00;5042263;28;20449;-71
2022/03/01 01:51:24;;;;;;;22.83;11.18;;;-0.90;72.10;;;-2.33;60.49;98483.31;5049793;28;20402;-71
2022/03/01 01:53:50;;;;;;;19.10;9.90;;;-0.90;72.20;;;-2.46;60.68;98476.81;5049306;28;20481;-71
2022/03/01 01:56:16;;;;;;;21.38;10.60;;;-0.90;71.90;;;-2.45;60.39;98483.63;5049601;28;20409;-71
2022/03/01 01:58:42;;;;;;;17.15;9.30;;;-0.90;72.80;;;-2.65;60.86;98477.72;5049964;28;20464;-71
2022/03/01 02:01:08;;;;;;;16.60;9.52;;;-1.10;71.90;;;-2.65;60.79;98487.25;5049853;28;20401;-71
2022/03/01 02:03:35;;;;;;;20.73;10.23;;;-1.10;72.30;;;-2.61;61.17;98483.41;5049390;28;20496;-71
2022/03/01 02:06:02;;;;;;;17.93;9.90;;;-1.10;72.40;;;-2.72;61.32;98478.41;5049549;28;20756;-71
2022/03/01 02:08:29;;;;;;;19.83;10.43;;;-1.20;72.40;;;-2.72;61.27;98475.81;5049825;28;20767;-71
2022/03/01 02:10:55;;;;;;;16.23;9.30;;;-1.20;72.90;;;-2.84;61.84;98482.91;5049661;28;20409;-71
2022/03/01 02:13:21;;;;;;;16.98;9.35;;;-1.30;72.90;;;-2.86;61.84;98483.09;5049192;28;20399;-71
2022/03/01 02:15:47;;;;;;;17.02;8.82;;;-1.30;73.10;;;-2.94;61.43;98474.38;5049700;28;20779;-71
2022/03/01 02:18:14;;;;;;;22.90;11.00;;;-1.40;73.10;;;-2.77;62.40;98486.59;5049498;28;20396;-71
2022/03/01 02:20:41;;;;;;;20.48;10.15;;;-1.40;74.10;;;-2.93;62.57;98476.00;5031719;28;20401;-71
2022/03/01 02:23:07;;;;;;;20.35;10.27;;;-1.40;74.20;;;-2.93;62.73;98479.38;5031355;28;20772;-71
2022/03/01 02:25:33;;;;;;;21.42;11.00;;;-1.40;74.30;;;-2.89;62.92;98475.59;5049755;28;20402;-71
2022/03/01 02:27:59;;;;;;;18.77;10.68;;;-1.50;75.10;;;-2.98;63.25;98480.78;5049124;28;20428;-71
2022/03/01 02:30:26;;;;;;;26.87;12.60;;;-1.50;75.00;;;-2.92;63.59;98485.38;5049518;28;20822;-71
2022/03/01 02:32:52;;;;;;;21.48;11.00;;;-1.50;75.60;;;-2.93;63.38;98479.38;5049235;28;20452;-71
2022/03/01 02:35:19;;;;;;;22.38;10.48;;;-1.40;76.00;;;-3.01;63.57;98474.13;5049694;28;20961;-71
2022/03/01 02:37:47;;;;;;;21.40;11.67;;;-1.40;75.80;;;-2.88;63.60;98468.63;5049179;28;20478;-71
2022/03/01 02:40:14;;;;;;;23.75;11.85;;;-1.50;76.10;;;-2.88;64.01;98472.03;5031614;28;20409;-71
2022/03/01 02:42:47;;;;;;;24.23;12.30;;;-1.50;76.30;;;-2.98;64.15;98463.47;5048143;28;20425;-71
2022/03/01 02:45:17;;;;;;;27.20;12.48;;;-1.50;76.20;;;-2.95;63.83;98472.72;5049411;28;20402;-71
2022/03/01 02:47:43;;;;;;;24.70;11.48;;;-1.50;76.50;;;-3.04;64.14;98469.19;5040696;28;20416;-71
2022/03/01 02:50:12;;;;;;;22.17;12.15;;;-1.50;76.40;;;-3.00;64.19;98469.72;5041151;28;20886;-71
2022/03/01 02:52:38;;;;;;;22.00;11.77;;;-1.50;76.50;;;-2.99;64.41;98467.00;5048647;28;20428;-70
2022/03/01 02:55:08;;;;;;;25.00;12.10;;;-1.50;76.90;;;-3.05;64.12;98470.16;5049427;28;20410;-70
2022/03/01 02:57:34;;;;;;;20.95;11.77;;;-1.60;76.80;;;-3.13;64.50;98465.66;5049139;28;20397;-70
2022/03/01 03:00:00;;;;;;;26.38;11.95;;;-1.60;77.10;;;-3.06;64.92;98467.69;5049265;28;20475;-71
2022/03/01 03:02:26;;;;;;;23.17;11.20;;;-1.60;77.30;;;-3.17;64.90;98463.50;5048835;28;20397;-72
2022/03/01 03:04:52;;;;;;;22.15;11.68;;;-1.70;77.10;;;-3.05;64.72;98471.91;5049459;28;20408;-71
2022/03/01 03:07:18;;;;;;;23.95;12.20;;;-1.60;77.60;;;-3.18;64.48;98467.03;5048822;28;20772;-71
2022/03/01 03:09:44;;;;;;;30.00;12.80;;;-1.70;77.40;;;-3.18;65.24;98456.69;5047937;28;20806;-71
2022/03/01 03:12:11;;;;;;;21.48;11.18;;;-1.70;77.80;;;-3.30;65.37;98468.13;5048216;28;20505;-72
2022/03/01 03:14:38;;;;;;;23.13;12.20;;;-1.80;77.70;;;-3.31;64.92;98469.91;5049067;28;20463;-71
2022/03/01 03:17:05;;;;;;;21.95;12.00;;;-1.80;77.90;;;-3.34;65.14;98475.38;5044440;28;20901;-72
2022/03/01 03:19:32;;;;;;;26.08;11.95;;;-1.80;77.90;;;-3.31;65.11;98469.09;5048005;28;20413;-71
2022/03/01 03:21:58;;;;;;;20.52;11.73;;;-1.80;77.90;;;-3.36;65.53;98471.25;5043776;28;20398;-71
2022/03/01 03:24:24;;;;;;;27.63;12.48;;;-1.80;78.30;;;-3.34;65.40;98467.59;5026668;28;20415;-71
2022/03/01 03:26:49;;;;;;;25.80;12.53;;;-1.80;78.40;;;-3.27;65.52;98466.09;5052456;28;20534;-72
2022/03/01 03:29:18;;;;;;;23.65;11.90;;;-1.80;78.50;;;-3.33;65.46;98473.59;5052487;28;20421;-71
2022/03/01 03:31:45;;;;;;;23.40;11.73;;;-1.90;78.40;;;-3.40;65.42;98472.50;5050860;28;20842;-72
2022/03/01 03:34:11;;;;;;;27.85;12.40;;;-1.90;78.50;;;-3.34;65.64;98475.38;5052591;28;20759;-72
2022/03/01 03:36:39;;;;;;;25.50;12.73;;;-1.90;78.90;;;-3.39;66.03;98477.56;5051057;28;20412;-72
2022/03/01 03:39:09;;;;;;;25.08;12.95;;;-1.90;78.90;;;-3.37;66.14;98477.38;5052361;28;20388;-71
2022/03/01 03:41:36;;;;;;;24.48;12.40;;;-1.90;79.00;;;-3.52;66.05;98477.81;5052206;28;20406;-71
2022/03/01 03:44:03;;;;;;;22.40;11.93;;;-1.90;79.00;;;-3.45;66.28;98472.06;5034371;28;20783;-71
2022/03/01 03:46:30;;;;;;;21.30;12.23;;;-2.00;79.10;;;-3.54;66.02;98474.56;5051982;28;20765;-71
2022/03/01 03:48:56;;;;;;;20.90;11.53;;;-2.00;79.10;;;-3.65;66.00;98474.66;5051875;28;20452;-71
2022/03/01 03:51:23;;;;;;;24.70;12.20;;;-2.00;79.00;;;-3.59;66.07;98474.13;5045485;28;20399;-71
2022/03/01 03:53:49;;;;;;;24.75;11.82;;;-2.00;80.00;;;-3.55;66.29;98472.09;5050336;28;20397;-71
2022/03/01 03:56:15;;;;;;;23.50;11.70;;;-2.00;79.30;;;-3.56;66.41;98476.44;5052296;28;20401;-71
2022/03/01 03:58:41;;;;;;;26.90;12.97;;;-2.10;79.30;;;-3.48;66.53;98478.34;5052233;28;20400;-72
2022/03/01 04:01:08;;;;;;;21.95;11.77;;;-2.00;80.40;;;-3.46;66.57;98476.47;5052109;28;20401;-71
2022/03/01 04:03:36;;;;;;;24.40;12.55;;;-2.10;79.60;;;-3.48;66.58;98480.13;5051557;28;20492;-71
2022/03/01 04:06:03;;;;;;;24.15;12.35;;;-2.10;79.90;;;-3.56;66.85;98466.09;5051716;28;20926;-71
2022/03/01 04:08:29;;;;;;;23.55;12.13;;;-2.10;80.20;;;-3.65;66.56;98463.50;5052068;28;20417;-71
2022/03/01 04:10:58;;;;;;;21.27;11.37;;;-2.20;80.20;;;-3.85;66.80;98465.25;5051926;28;20452;-71
2022/03/01 04:13:24;;;;;;;21.13;11.38;;;-2.30;80.00;;;-3.86;67.41;98462.81;5051353;28;20397;-70
2022/03/01 04:15:51;;;;;;;23.73;12.10;;;-2.30;80.20;;;-3.83;67.66;98465.13;5051751;28;20425;-71
2022/03/01 04:18:17;;;;;;;22.20;12.32;;;-2.30;80.40;;;-3.84;67.29;98468.66;5051258;28;20393;-70
2022/03/01 04:20:44;;;;;;;23.80;12.40;;;-2.30;80.60;;;-3.80;67.08;98470.84;5051678;28;20397;-71
2022/03/01 04:23:10;;;;;;;22.20;10.95;;;-2.30;80.60;;;-3.80;67.51;98468.25;5051243;28;20402;-70
2022/03/01 04:25:36;;;;;;;24.92;12.25;;;-2.30;80.70;;;-3.85;67.23;98470.44;5051714;28;20917;-70
2022/03/01 04:28:03;;;;;;;24.40;12.38;;;-2.30;80.80;;;-3.79;67.70;98459.53;5051278;28;20405;-70
2022/03/01 04:30:29;;;;;;;20.92;11.00;;;-2.30;81.10;;;-3.91;67.65;98461.41;5050660;28;20405;-70
2022/03/01 04:32:55;;;;;;;21.40;11.67;;;-2.40;81.00;;;-3.98;68.04;98465.50;5051219;28;21029;-70
2022/03/01 04:35:21;;;;;;;19.13;9.90;;;-2.40;81.20;;;-4.04;67.55;98457.44;5051519;28;20401;-70
2022/03/01 04:37:48;;;;;;;20.27;11.20;;;-2.40;81.00;;;-3.91;67.74;98451.06;5051095;28;20401;-70
2022/03/01 04:40:16;;;;;;;22.42;11.60;;;-2.40;81.10;;;-4.00;67.50;98449.31;5051395;28;20397;-70
2022/03/01 04:42:42;;;;;;;23.20;11.55;;;-2.40;81.10;;;-4.01;67.73;98450.25;5050785;28;20448;-71
2022/03/01 04:45:12;;;;;;;20.43;11.30;;;-2.40;81.10;;;-4.13;67.75;98445.31;5051311;28;20437;-71
2022/03/01 04:47:39;;;;;;;18.23;9.05;;;-2.50;81.10;;;-4.22;68.10;98457.28;5049366;28;20906;-71
2022/03/01 04:50:07;;;;;;;24.10;11.50;;;-2.60;81.10;;;-4.17;68.06;98449.94;5051035;28;20397;-71
2022/03/01 04:52:33;;;;;;;21.20;11.18;;;-2.60;81.40;;;-4.19;68.33;98441.50;5050638;28;20408;-71
2022/03/01 04:55:00;;;;;;;20.93;11.37;;;-2.60;81.40;;;-4.23;68.25;98444.50;5051084;28;20790;-71
2022/03/01 04:57:26;;;;;;;19.90;10.88;;;-2.60;81.60;;;-4.28;68.00;98443.09;5050719;28;20409;-71
2022/03/01 04:59:52;;;;;;;20.63;11.20;;;-2.70;81.50;;;-4.24;68.05;98435.09;5050949;28;20401;-71
2022/03/01 05:02:18;;;;;;;26.65;12.43;;;-2.60;81.80;;;-4.19;68.31;98436.31;5050425;28;20712;-70
2022/03/01 05:04:44;;;;;;;22.23;11.43;;;-2.70;81.80;;;-4.33;68.48;98434.94;5050897;28;20437;-70
2022/03/01 05:07:10;;;;;;;25.77;12.30;;;-2.70;81.70;;;-4.20;68.33;98433.88;5050646;28;20806;-70
2022/03/01 05:09:36;;;;;;;25.17;12.05;;;-2.60;81.90;;;-4.19;68.13;98436.31;5050735;28;20445;-71
2022/03/01 05:12:04;;;;;;;20.63;10.30;;;-2.60;81.80;;;-4.32;68.01;98433.16;5050153;28;20428;-73
2022/03/01 05:14:30;;;;;;;19.60;10.40;;;-2.70;81.50;;;-4.40;68.12;98420.09;5050733;28;20405;-70
2022/03/01 05:16:56;;;;;;;19.77;10.13;;;-2.80;81.60;;;-4.45;68.25;98425.66;5050288;28;20455;-71
2022/03/01 05:19:22;;;;;;;22.38;11.10;;;-2.80;81.80;;;-4.43;68.80;98434.06;5050471;28;20828;-72
2022/03/01 05:21:48;;;;;;;22.67;11.40;;;-2.80;81.90;;;-4.37;68.59;98436.16;5050170;28;20407;-70
2022/03/01 05:24:14;;;;;;;21.70;11.63;;;-2.80;82.00;;;-4.21;68.44;98430.47;5050634;28;20401;-70
2022/03/01 05:26:40;;;;;;;24.98;12.35;;;-2.70;82.40;;;-4.34;68.66;98433.28;5050038;28;20938;-70
2022/03/01 05:29:07;;;;;;;29.92;12.88;;;-2.70;82.20;;;-4.27;68.56;98428.41;5050202;28;20413;-70
2022/03/01 05:31:34;;;;;;;28.70;13.63;;;-2.80;82.20;;;-4.25;68.41;98431.69;5050526;28;20397;-71
2022/03/01 05:34:00;;;;;;;21.60;11.70;;;-2.80;82.40;;;-4.39;68.33;98421.72;5049780;28;20401;-71
2022/03/01 05:36:26;;;;;;;29.63;12.95;;;-2.80;82.20;;;-4.32;68.59;98430.59;5050003;28;20905;-70
2022/03/01 05:38:52;;;;;;;25.48;12.65;;;-2.80;82.30;;;-4.25;68.60;98428.28;5048810;28;20520;-71
2022/03/01 05:41:20;;;;;;;20.58;10.98;;;-2.70;82.40;;;-4.40;68.56;98428.66;5049725;28;20980;-70
2022/03/01 05:43:46;;;;;;;24.85;12.98;;;-2.80;82.10;;;-4.33;68.73;98428.94;5049481;28;20759;-70
2022/03/01 05:46:13;;;;;;;22.25;11.95;;;-2.80;82.10;;;-4.41;68.33;98432.19;5049806;28;20406;-70
2022/03/01 05:48:39;;;;;;;26.58;12.55;;;-2.80;82.10;;;-4.33;68.66;98434.94;5049884;28;20466;-70
2022/03/01 05:51:06;;;;;;;26.38;12.50;;;-2.80;82.20;;;-4.35;68.26;98436.81;5050059;28;20490;-71
2022/03/01 05:53:32;;;;;;;25.52;12.70;;;-2.80;82.30;;;-4.42;68.58;98435.72;5049579;28;20402;-71
2022/03/01 05:55:58;;;;;;;22.23;11.48;;;-2.80;82.30;;;-4.48;68.48;98438.00;5049694;28;20410;-71
2022/03/01 05:58:24;;;;;;;22.38;11.45;;;-2.90;82.20;;;-4.62;68.88;98438.38;5049925;28;20458;-71
2022/03/01 06:00:50;;;;;;;17.27;9.90;;;-3.00;82.20;;;-4.71;69.10;98443.34;5049904;28;20411;-72
2022/03/01 06:03:17;;;;;;;19.52;10.20;;;-3.10;82.30;;;-4.74;69.13;98455.72;5049465;28;20397;-72
2022/03/01 06:05:43;;;;;;;22.10;11.82;;;-3.10;82.70;;;-4.65;69.00;98451.53;5049912;28;20394;-72
2022/03/01 06:08:09;;;;;;;23.83;12.30;;;-3.10;82.80;;;-4.52;68.99;98463.31;5049613;28;20763;-72
2022/03/01 06:10:35;;;;;;;22.85;12.50;;;-3.00;83.00;;;-4.55;69.21;98466.13;5049773;28;20408;-72
2022/03/01 06:13:01;;;;;;;25.15;12.15;;;-3.00;82.90;;;-4.52;69.36;98459.91;5049363;28;20412;-71
2022/03/01 06:15:27;;;;;;;25.73;12.15;;;-3.00;82.80;;;-4.49;68.88;98454.44;5050005;28;20467;-71
2022/03/01 06:17:53;;;;;;;28.15;13.82;;;-2.90;83.00;;;-4.43;68.65;98459.91;5049499;28;20405;-71
2022/03/01 06:20:20;;;;;;;24.33;12.68;;;-2.90;82.90;;;-4.46;68.73;98462.78;5049771;28;20404;-71
2022/03/01 06:22:46;;;;;;;22.95;13.02;;;-2.90;82.90;;;-4.48;69.26;98469.00;5049139;28;20404;-71
2022/03/01 06:25:12;;;;;;;19.52;11.40;;;-2.90;82.90;;;-4.54;69.21;98462.59;5049804;28;20451;-71
2022/03/01 06:27:40;;;;;;;18.80;10.53;;;-2.90;82.70;;;-4.55;69.15;98467.91;5049343;28;20472;-71
2022/03/01 06:30:07;;;;;;;19.57;10.77;;;-2.90;82.80;;;-4.58;68.98;98470.72;5049406;28;20413;-71
2022/03/01 06:32:34;;;;;;;21.38;12.18;;;-2.90;82.80;;;-4.39;68.49;98471.66;5049098;28;20397;-71
2022/03/01 06:34:59;;;;;;;23.15;12.13;;;-2.90;82.70;;;-4.40;68.99;98474.34;5049645;28;20401;-71
2022/03/01 06:37:27;;;;;;;24.45;12.85;;;-2.90;82.80;;;-4.34;68.80;98484.16;5042130;28;20458;-72
2022/03/01 06:39:53;;;;;;;23.30;11.88;;;-2.80;82.80;;;-4.24;68.54;98479.03;5045896;28;20393;-72
2022/03/01 06:42:19;;;;;;;25.80;12.32;;;-2.80;82.90;;;-4.28;68.78;98483.63;5044913;28;20891;-72
2022/03/01 06:44:45;;;;;;;25.25;12.80;;;-2.80;82.80;;;-4.20;68.77;98494.13;5031802;28;20421;-73
2022/03/01 06:47:11;;;;;;;24.70;13.00;;;-2.70;83.00;;;-4.17;68.54;98495.66;5047042;28;20398;-72
2022/03/01 06:49:38;;;;;;;26.70;13.57;;;-2.70;83.00;;;-4.09;68.63;98501.00;5046348;28;20429;-71
2022/03/01 06:52:05;;;;;;;22.10;11.73;;;-2.70;83.00;;;-4.26;68.66;98505.00;5042208;28;20403;-74
2022/03/01 06:54:32;;;;;;;21.50;11.27;;;-2.70;82.90;;;-4.21;69.04;98502.84;5052372;28;20902;-76
2022/03/01 06:56:58;;;;;;;28.48;13.45;;;-2.60;83.00;;;-4.02;68.61;98504.69;5048907;28;20419;-76
2022/03/01 06:59:26;;;;;;;30.10;13.68;;;-2.60;83.10;;;-3.91;68.74;98507.19;5047848;28;20843;-75
2022/03/01 07:01:52;;;;;;;23.67;12.87;;;-2.50;82.90;;;-3.87;67.97;98507.72;5042991;28;20441;-76
2022/03/01 07:04:18;;;;;;;28.05;13.85;;;-2.40;82.30;;;-3.74;67.29;98510.88;5043871;28;20917;-76
2022/03/01 07:06:44;;;;;;;23.45;12.90;;;-2.30;81.60;;;-3.72;66.94;98512.38;5042487;28;20414;-76
2022/03/01 07:09:10;;;;;;;21.63;11.68;;;-2.30;81.10;;;-3.67;66.93;98520.53;5042146;28;20416;-76
2022/03/01 07:11:38;;;;;;;24.77;12.93;;;-2.20;81.10;;;-3.47;65.58;98518.00;5043573;28;20887;-76
2022/03/01 07:14:04;;;;;;;22.35;12.20;;;-2.00;79.10;;;-3.37;65.27;98518.81;5042183;28;20415;-76
2022/03/01 07:16:30;;;;;;;22.25;11.52;;;-1.90;79.20;;;-3.31;65.20;98519.09;5041039;28;20788;-76
2022/03/01 07:18:56;;;;;;;21.85;12.35;;;-1.90;78.70;;;-3.14;63.81;98517.59;5041363;28;20399;-75
2022/03/01 07:21:22;;;;;;;22.75;11.30;;;-1.70;77.60;;;-3.06;64.24;98525.50;5043738;28;21103;-74
2022/03/01 07:23:48;;;;;;;22.65;11.98;;;-1.70;77.80;;;-2.87;62.96;98525.50;5041959;28;20414;-74
2022/03/01 07:26:14;;;;;;;20.65;11.57;;;-1.50;75.80;;;-2.73;62.82;98526.81;5044535;28;20410;-74
2022/03/01 07:28:41;;;;;;;20.63;11.17;;;-1.30;75.70;;;-2.59;61.99;98535.94;5044227;28;20791;-74
2022/03/01 07:31:07;;;;;;;26.10;12.37;;;-1.20;75.40;;;-2.48;61.65;98528.00;5042225;28;20432;-74
2022/03/01 07:33:33;;;;;;;18.02;10.25;;;-1.10;74.50;;;-2.38;61.54;98528.78;5032171;28;20391;-74
2022/03/01 07:36:00;;;;;;;18.23;10.57;;;-1.00;74.70;;;-2.29;61.48;98533.13;5034760;28;20409;-74
2022/03/01 07:38:26;;;;;;;20.15;10.18;;;-0.90;74.40;;;-2.21;61.07;98533.22;5047685;28;20480;-75
2022/03/01 07:40:52;;;;;;;17.10;10.20;;;-0.90;74.00;;;-2.13;60.99;98542.88;5044357;28;20409;-75
2022/03/01 07:43:18;;;;;;;21.13;11.05;;;-0.80;73.80;;;-2.07;60.79;98535.34;5032689;28;20406;-75
2022/03/01 07:45:45;;;;;;;18.93;9.80;;;-0.70;73.40;;;-2.00;60.32;98539.00;5047087;28;20492;-75
2022/03/01 07:48:12;;;;;;;22.55;10.77;;;-0.60;73.10;;;-1.92;59.93;98535.69;5037967;28;20417;-75
2022/03/01 07:50:38;;;;;;;20.80;11.23;;;-0.60;72.60;;;-1.86;59.73;98535.09;5050290;28;20413;-73
2022/03/01 07:53:04;;;;;;;18.65;9.88;;;-0.50;72.30;;;-1.78;59.54;98542.16;5046924;28;20414;-72
2022/03/01 07:55:30;;;;;;;18.23;10.60;;;-0.40;72.90;;;-1.71;58.81;98538.84;5052060;28;20887;-72
2022/03/01 07:57:56;;;;;;;18.38;10.02;;;-0.40;71.50;;;-1.62;59.17;98539.75;5051498;28;20405;-73
2022/03/01 08:00:27;;;;;;;21.83;11.18;;;-0.30;71.50;;;-1.56;58.16;98532.19;5051737;28;21057;-72
2022/03/01 08:02:54;;;;;;;21.88;10.98;;;-0.20;71.00;;;-1.48;57.92;98528.06;5051400;28;20407;-73
2022/03/01 08:05:20;;;;;;;18.42;9.82;;;-0.20;70.50;;;-1.42;58.35;98525.69;5051870;28;20401;-73
2022/03/01 08:07:46;;;;;;;18.73;9.52;;;-0.10;70.30;;;-1.35;57.98;98531.09;5033779;28;21033;-72
2022/03/01 08:10:12;;;;;;;19.00;9.70;;;0.00;70.20;;;-1.30;57.64;98526.31;5051927;28;20397;-72
2022/03/01 08:12:38;;;;;;;19.70;10.02;;;0.00;69.90;;;-1.25;57.45;98524.06;5051445;28;20458;-72
2022/03/01 08:15:05;;;;;;;18.30;10.52;;;0.00;69.50;;;-1.20;57.11;98530.44;5051849;28;20418;-74
2022/03/01 08:17:31;;;;;;;20.15;11.23;;;0.10;69.30;;;-1.14;56.70;98523.84;5046635;28;20415;-72
2022/03/01 08:20:02;;;;;;;19.55;10.38;;;0.10;68.40;;;-1.08;56.08;98523.25;5048130;28;20756;-72
2022/03/01 08:22:28;;;;;;;20.53;10.77;;;0.20;68.40;;;-1.01;56.49;98513.06;5050995;28;20409;-72
2022/03/01 08:24:54;;;;;;;16.38;9.70;;;0.30;68.20;;;-0.95;56.34;98509.88;5047119;28;20433;-72
2022/03/01 08:27:27;;;;;;;15.82;9.43;;;0.30;68.00;;;-0.90;56.38;98505.84;5038586;28;20402;-73
2022/03/01 08:29:53;;;;;;;19.02;10.00;;;0.40;68.00;;;-0.84;56.12;98505.25;5066142;28;20425;-73
2022/03/01 08:32:18;;;;;;;18.52;9.45;;;0.40;67.80;;;-0.80;56.09;98503.97;5050236;28;20409;-73
2022/03/01 08:34:44;;;;;;;18.85;10.43;;;0.50;67.60;;;-0.74;55.81;98505.16;5051212;28;20433;-72
2022/03/01 08:37:12;;;;;;;19.65;10.07;;;0.50;67.40;;;-0.70;55.15;98503.91;5049792;28;20406;-73
2022/03/01 08:39:38;;;;;;;17.17;9.77;;;0.60;66.80;;;-0.63;55.08;98499.72;5051267;28;20397;-74
2022/03/01 08:42:04;;;;;;;19.90;9.70;;;0.60;66.50;;;-0.57;54.42;98508.69;5050809;28;20405;-73
2022/03/01 08:44:30;;;;;;;18.30;10.15;;;0.70;65.80;;;-0.53;54.46;98504.81;5051259;28;20416;-74
2022/03/01 08:46:56;;;;;;;17.43;9.30;;;0.70;65.40;;;-0.46;54.01;98504.06;5050860;28;20401;-73
2022/03/01 08:49:22;;;;;;;14.13;8.52;;;0.80;65.50;;;-0.40;54.16;98500.00;5050985;28;20551;-73
2022/03/01 08:51:48;;;;;;;13.18;8.00;;;0.80;65.50;;;-0.33;54.42;98506.22;5043041;28;20502;-72
2022/03/01 08:54:15;;;;;;;16.00;9.43;;;0.90;65.40;;;-0.26;53.78;98503.81;5051021;28;20492;-73
2022/03/01 08:56:41;;;;;;;16.58;9.35;;;1.00;65.20;;;-0.21;53.25;98499.78;5050233;28;20914;-73
2022/03/01 08:59:07;;;;;;;15.05;8.70;;;1.00;64.50;;;-0.14;53.43;98499.97;5050691;28;20401;-73
2022/03/01 09:01:33;;;;;;;17.60;8.63;;;1.10;64.50;;;-0.10;53.54;98489.09;5049138;28;20416;-72
2022/03/01 09:03:59;;;;;;;17.08;9.32;;;1.10;64.20;;;-0.03;53.33;98497.91;5049786;28;20504;-73
2022/03/01 09:06:25;;;;;;;17.65;9.73;;;1.20;64.20;;;0.02;53.06;98497.44;5050224;28;20405;-72
2022/03/01 09:08:51;;;;;;;18.23;9.68;;;1.20;63.90;;;0.05;52.67;98486.72;5050553;28;20428;-73
2022/03/01 09:11:18;;;;;;;14.43;8.43;;;1.30;63.40;;;0.09;52.60;98480.22;5050828;28;20402;-73
2022/03/01 09:13:44;;;;;;;18.95;9.90;;;1.30;64.20;;;0.13;51.92;98481.53;5048186;28;20432;-75
2022/03/01 09:16:11;;;;;;;18.45;9.65;;;1.30;62.60;;;0.18;51.94;98481.88;5049403;28;20413;-74
2022/03/01 09:18:37;;;;;;;17.03;8.97;;;1.40;62.30;;;0.22;51.96;98483.19;5050105;28;20465;-75
2022/03/01 09:21:04;;;;;;;14.77;8.68;;;1.40;62.40;;;0.24;51.67;98470.81;5050290;28;20402;-74
2022/03/01 09:23:30;;;;;;;16.08;8.95;;;1.50;62.30;;;0.29;51.51;98472.97;5049903;28;20874;-75
2022/03/01 09:25:55;;;;;;;20.52;10.40;;;1.50;61.80;;;0.31;51.07;98466.59;5045543;28;20434;-75
2022/03/01 09:28:23;;;;;;;16.80;9.15;;;1.50;60.90;;;0.36;50.97;98472.16;5030239;28;20415;-75
2022/03/01 09:30:49;;;;;;;18.10;10.02;;;1.60;61.40;;;0.40;50.58;98470.03;5048017;28;20409;-76
2022/03/01 09:33:15;;;;;;;15.43;8.82;;;1.60;60.50;;;0.46;50.91;98472.00;5049806;28;20408;-73
2022/03/01 09:35:41;;;;;;;18.27;9.35;;;1.60;60.80;;;0.50;49.71;98480.31;5050267;28;20495;-73
2022/03/01 09:38:07;;;;;;;17.38;8.95;;;1.70;60.00;;;0.57;48.82;98471.72;5049909;28;20737;-75
2022/03/01 09:40:34;;;;;;;15.50;8.73;;;1.80;58.70;;;0.62;48.87;98469.41;5050049;28;20432;-74
2022/03/01 09:43:00;;;;;;;18.25;10.15;;;1.80;58.70;;;0.69;48.63;98466.97;5049521;28;20397;-75
2022/03/01 09:45:28;;;;;;;16.30;9.00;;;1.90;58.20;;;0.77;48.76;98464.38;5050103;28;20475;-74
2022/03/01 09:47:54;;;;;;;14.07;8.07;;;1.90;58.40;;;0.85;48.67;98461.78;5049570;28;20413;-74
2022/03/01 09:50:46;;;;;;;13.68;8.23;;;2.00;58.70;;;0.90;48.78;98459.53;5049871;28;20412;-77
2022/03/01 09:53:12;;;;;;;14.88;8.32;;;2.10;58.70;;;1.01;49.01;98456.56;5049665;28;20390;-73
2022/03/01 09:55:39;;;;;;;14.73;8.30;;;2.10;58.70;;;1.10;48.73;98459.97;5039301;28;20396;-73
2022/03/01 09:58:05;;;;;;;15.48;8.82;;;2.20;58.60;;;1.16;48.29;98454.91;5039553;28;20415;-73
2022/03/01 10:00:32;;;;;;;13.15;7.97;;;2.30;58.00;;;1.30;48.17;98453.44;5049941;28;20393;-71
2022/03/01 10:02:59;;;;;;;16.60;9.30;;;2.40;58.10;;;1.51;47.55;98456.31;5049440;28;20439;-74
2022/03/01 10:05:35;;;;;;;17.45;9.13;;;2.60;57.70;;;2.07;45.87;98454.47;5049970;28;20452;-73
2022/03/01 10:08:10;;;;;;;17.52;9.05;;;3.10;56.10;;;2.93;45.12;98456.84;5049421;28;20397;-73
2022/03/01 10:10:38;;;;;;;14.80;8.25;;;4.00;55.60;;;4.03;43.31;98449.97;5049746;28;20398;-75